Time;durP1;ratioP1;P1;durP2;ratioP2;P2;SDS_P1;SDS_P2;PMS_P1;PMS_P2;Temp;Humidity;BMP_temperature;BMP_pressure;BME280_temperature;BME280_humidity;BME280_pressure;Samples;Min_cycle;Max_cycle;Signal;HPM_P1;HPM_P2
2023/08/09 00:02:31;;;;;;;8.05;4.50;;;;;;;;;;10195342;28;20065;-73
2023/08/09 00:07:28;;;;;;;5.07;4.57;;;;;;;;;;10230877;28;20045;-73
2023/08/09 00:12:24;;;;;;;6.43;4.55;;;;;;;;;;10212122;28;20057;-72
2023/08/09 00:17:20;;;;;;;7.32;4.63;;;;;;;;;;10229431;28;20065;-73
2023/08/09 00:22:18;;;;;;;7.40;4.95;;;;;;;;;;10211559;28;20082;-73
2023/08/09 00:27:15;;;;;;;8.93;4.53;;;;;;;;;;10227957;28;20050;-71
2023/08/09 00:32:11;;;;;;;5.88;4.80;;;;;;;;;;10209428;28;20054;-73
2023/08/09 00:37:07;;;;;;;7.85;4.40;;;;;;;;;;10227524;28;20065;-73
2023/08/09 00:42:04;;;;;;;7.55;4.38;;;;;;;;;;10213921;28;20046;-73
2023/08/09 00:47:00;;;;;;;9.95;4.50;;;;;;;;;;10225955;28;20107;-72
2023/08/09 00:51:57;;;;;;;7.60;5.70;;;;;;;;;;10217767;28;20050;-73
2023/08/09 00:56:54;;;;;;;6.63;5.03;;;;;;;;;;10233183;28;20103;-73
2023/08/09 01:01:50;;;;;;;7.88;4.90;;;;;;;;;;10221532;28;20058;-72
2023/08/09 01:07:00;;;;;;;8.07;5.05;;;;;;;;;;10198681;28;20077;-72
2023/08/09 01:11:58;;;;;;;6.28;4.47;;;;;;;;;;10201049;28;20048;-72
2023/08/09 01:16:56;;;;;;;15.45;5.53;;;;;;;;;;10227718;28;20112;-73
2023/08/09 01:21:55;;;;;;;7.70;5.38;;;;;;;;;;10201123;28;20062;-72
2023/08/09 01:26:59;;;;;;;7.93;4.10;;;;;;;;;;10231613;28;20103;-72
2023/08/09 01:31:55;;;;;;;7.22;4.82;;;;;;;;;;10237204;28;20392;-73
2023/08/09 01:36:52;;;;;;;10.27;4.65;;;;;;;;;;10240151;28;20526;-73
2023/08/09 01:41:49;;;;;;;7.68;4.55;;;;;;;;;;10222221;28;20103;-73
2023/08/09 01:46:46;;;;;;;7.07;4.43;;;;;;;;;;10222120;28;20061;-72
2023/08/09 01:51:43;;;;;;;7.75;4.85;;;;;;;;;;10210100;28;20050;-73
2023/08/09 01:56:40;;;;;;;5.88;4.22;;;;;;;;;;10219607;28;20046;-72
2023/08/09 02:01:36;;;;;;;7.75;4.80;;;;;;;;;;10199613;28;20077;-73
2023/08/09 02:06:33;;;;;;;7.90;5.10;;;;;;;;;;10216738;28;20519;-73
2023/08/09 02:11:32;;;;;;;11.55;4.97;;;;;;;;;;10198793;28;20452;-73
2023/08/09 02:16:28;;;;;;;7.25;4.65;;;;;;;;;;10225200;28;20106;-73
2023/08/09 02:21:25;;;;;;;8.32;4.30;;;;;;;;;;10221034;28;20057;-73
2023/08/09 02:26:21;;;;;;;5.28;4.03;;;;;;;;;;10236831;28;20511;-73
2023/08/09 02:31:18;;;;;;;6.65;4.13;;;;;;;;;;10238479;28;20521;-72
2023/08/09 02:36:15;;;;;;;7.63;4.63;;;;;;;;;;10236676;28;20057;-73
2023/08/09 02:41:11;;;;;;;8.20;4.72;;;;;;;;;;10237135;28;20053;-73
2023/08/09 02:46:09;;;;;;;10.20;4.70;;;;;;;;;;10237893;28;20049;-73
2023/08/09 02:51:05;;;;;;;10.02;4.97;;;;;;;;;;10236993;28;20446;-72
2023/08/09 02:56:01;;;;;;;7.20;4.68;;;;;;;;;;10238130;28;20112;-73
2023/08/09 03:00:58;;;;;;;9.48;5.32;;;;;;;;;;10223296;28;20527;-73
2023/08/09 03:05:54;;;;;;;8.05;5.30;;;;;;;;;;10220358;28;20081;-73
2023/08/09 03:10:50;;;;;;;8.15;6.15;;;;;;;;;;10236835;28;20053;-73
2023/08/09 03:15:47;;;;;;;9.13;5.70;;;;;;;;;;10236035;28;20531;-73
2023/08/09 03:20:43;;;;;;;10.85;7.07;;;;;;;;;;10212031;28;20045;-73
2023/08/09 03:25:39;;;;;;;9.77;5.95;;;;;;;;;;10217739;28;20045;-72
2023/08/09 03:30:36;;;;;;;7.85;6.18;;;;;;;;;;10222268;28;20050;-73
2023/08/09 03:35:32;;;;;;;6.25;5.65;;;;;;;;;;10200375;28;20046;-73
2023/08/09 03:40:49;;;;;;;7.28;5.60;;;;;;;;;;10275991;28;24416;-73
2023/08/09 03:46:00;;;;;;;8.65;6.60;;;;;;;;;;10217050;28;20055;-72
2023/08/09 03:51:00;;;;;;;7.22;5.65;;;;;;;;;;10368710;28;20631;-72
2023/08/09 03:55:56;;;;;;;8.10;6.30;;;;;;;;;;10349873;28;20071;-73
2023/08/09 04:00:52;;;;;;;7.72;6.03;;;;;;;;;;10371886;28;20040;-73
2023/08/09 04:05:49;;;;;;;8.60;6.53;;;;;;;;;;10391968;28;20048;-72
2023/08/09 04:10:45;;;;;;;8.00;5.70;;;;;;;;;;10352794;28;20036;-72
2023/08/09 04:15:41;;;;;;;7.88;5.88;;;;;;;;;;10360537;28;20040;-72
2023/08/09 04:20:40;;;;;;;8.75;6.18;;;;;;;;;;10349868;28;20060;-73
2023/08/09 04:25:37;;;;;;;12.65;6.53;;;;;;;;;;10354567;28;20074;-72
2023/08/09 04:30:33;;;;;;;9.60;6.55;;;;;;;;;;10350193;28;20060;-73
2023/08/09 04:35:30;;;;;;;7.47;6.03;;;;;;;;;;10382333;28;20071;-72
2023/08/09 04:40:27;;;;;;;12.88;6.32;;;;;;;;;;10390385;28;20113;-72
2023/08/09 04:45:24;;;;;;;9.20;5.97;;;;;;;;;;10374481;28;20048;-73
2023/08/09 04:50:21;;;;;;;8.43;6.10;;;;;;;;;;10370845;28;20048;-72
2023/08/09 04:55:19;;;;;;;12.10;5.80;;;;;;;;;;10361980;28;20056;-73
2023/08/09 05:00:16;;;;;;;7.20;5.95;;;;;;;;;;10331057;28;20810;-73
2023/08/09 05:05:12;;;;;;;11.27;6.00;;;;;;;;;;10337832;28;20048;-73
2023/08/09 05:10:09;;;;;;;7.15;5.90;;;;;;;;;;10335425;28;20421;-73
2023/08/09 05:15:06;;;;;;;6.20;5.53;;;;;;;;;;10324556;28;20047;-73
2023/08/09 05:20:02;;;;;;;8.57;5.90;;;;;;;;;;10360192;28;20079;-72
2023/08/09 05:24:59;;;;;;;12.18;6.75;;;;;;;;;;10339785;28;20483;-72
2023/08/09 05:29:55;;;;;;;8.10;6.00;;;;;;;;;;10319714;28;20059;-73
2023/08/09 05:34:52;;;;;;;6.57;5.82;;;;;;;;;;10334633;28;20051;-72
2023/08/09 05:39:48;;;;;;;9.00;6.93;;;;;;;;;;10349747;28;20075;-72
2023/08/09 05:44:44;;;;;;;7.07;5.95;;;;;;;;;;10333265;28;20040;-73
2023/08/09 05:49:40;;;;;;;7.80;5.80;;;;;;;;;;10360174;28;20078;-73
2023/08/09 05:54:37;;;;;;;8.10;6.55;;;;;;;;;;10358746;28;20471;-73
2023/08/09 05:59:36;;;;;;;9.55;6.18;;;;;;;;;;10327991;28;20715;-72
2023/08/09 06:04:35;;;;;;;7.22;5.72;;;;;;;;;;10330512;28;20040;-72
2023/08/09 06:09:31;;;;;;;11.60;5.95;;;;;;;;;;10322654;28;20127;-73
2023/08/09 06:14:28;;;;;;;7.43;6.20;;;;;;;;;;10330509;28;20052;-72
2023/08/09 06:19:25;;;;;;;6.82;5.45;;;;;;;;;;10358586;28;20044;-73
2023/08/09 06:24:21;;;;;;;6.65;5.50;;;;;;;;;;10338585;28;20070;-73
2023/08/09 06:29:17;;;;;;;8.32;5.70;;;;;;;;;;10357991;28;20040;-73
2023/08/09 06:34:14;;;;;;;6.97;5.35;;;;;;;;;;10357944;28;20048;-73
2023/08/09 06:39:10;;;;;;;10.13;6.07;;;;;;;;;;10357292;28;20093;-72
2023/08/09 06:44:06;;;;;;;8.55;6.43;;;;;;;;;;10357774;28;20044;-72
2023/08/09 06:49:03;;;;;;;7.70;6.05;;;;;;;;;;10357050;28;20498;-72
2023/08/09 06:53:59;;;;;;;10.40;5.93;;;;;;;;;;10356317;28;20050;-72
2023/08/09 06:58:55;;;;;;;11.75;6.30;;;;;;;;;;10331185;28;20041;-72
2023/08/09 07:03:53;;;;;;;11.95;6.15;;;;;;;;;;10323146;28;20032;-72
2023/08/09 07:08:53;;;;;;;7.25;4.97;;;;;;;;;;10326275;28;20460;-72
2023/08/09 07:13:49;;;;;;;8.52;5.10;;;;;;;;;;10322576;28;20047;-72
2023/08/09 07:18:45;;;;;;;8.68;5.78;;;;;;;;;;10320385;28;20069;-73
2023/08/09 07:23:42;;;;;;;9.10;5.30;;;;;;;;;;10320307;28;20044;-73
2023/08/09 07:28:52;;;;;;;9.02;5.15;;;;;;;;;;10356283;28;20127;-72
2023/08/09 07:33:49;;;;;;;7.25;5.45;;;;;;;;;;10355970;28;20039;-73
2023/08/09 07:38:45;;;;;;;8.50;5.68;;;;;;;;;;10355983;28;20044;-73
2023/08/09 07:43:42;;;;;;;9.05;5.32;;;;;;;;;;10356484;28;20052;-73
2023/08/09 07:48:38;;;;;;;8.18;5.18;;;;;;;;;;10356504;28;20055;-72
2023/08/09 07:53:34;;;;;;;11.35;5.05;;;;;;;;;;10328590;28;20048;-73
2023/08/09 07:58:31;;;;;;;7.47;5.28;;;;;;;;;;10355461;28;20036;-73
2023/08/09 08:03:27;;;;;;;10.05;5.70;;;;;;;;;;10355789;28;20040;-72
2023/08/09 08:08:24;;;;;;;6.50;5.30;;;;;;;;;;10345294;28;20075;-73
2023/08/09 08:13:20;;;;;;;9.60;5.43;;;;;;;;;;10317029;28;20587;-73
2023/08/09 08:18:16;;;;;;;11.05;5.63;;;;;;;;;;10328465;28;20040;-73
2023/08/09 08:23:12;;;;;;;11.38;6.03;;;;;;;;;;10316778;28;20506;-73
2023/08/09 08:28:09;;;;;;;8.30;5.90;;;;;;;;;;10362177;28;20058;-72
2023/08/09 08:33:05;;;;;;;8.40;5.63;;;;;;;;;;10362961;28;20052;-72
2023/08/09 08:38:02;;;;;;;10.40;6.28;;;;;;;;;;10362342;28;20050;-73
2023/08/09 08:42:59;;;;;;;7.00;5.43;;;;;;;;;;10342777;28;20790;-73
2023/08/09 08:47:56;;;;;;;6.50;5.60;;;;;;;;;;10361823;28;20050;-73
2023/08/09 08:52:52;;;;;;;8.20;5.80;;;;;;;;;;10361950;28;20044;-73
2023/08/09 08:57:49;;;;;;;12.63;5.47;;;;;;;;;;10361483;28;20044;-73
2023/08/09 09:02:46;;;;;;;11.73;6.00;;;;;;;;;;10362219;28;20044;-73
2023/08/09 09:07:45;;;;;;;7.55;5.60;;;;;;;;;;10361483;28;20047;-74
2023/08/09 09:12:41;;;;;;;7.75;5.75;;;;;;;;;;10361755;28;20097;-73
2023/08/09 09:17:38;;;;;;;11.25;6.40;;;;;;;;;;10360665;28;20047;-73
2023/08/09 09:22:35;;;;;;;8.02;6.25;;;;;;;;;;10361740;28;20082;-74
2023/08/09 09:27:33;;;;;;;11.02;7.15;;;;;;;;;;10339551;28;20052;-74
2023/08/09 09:32:32;;;;;;;8.07;5.40;;;;;;;;;;10320151;28;20048;-73
2023/08/09 09:37:29;;;;;;;5.78;5.00;;;;;;;;;;10355853;28;20136;-74
2023/08/09 09:42:32;;;;;;;7.63;4.97;;;;;;;;;;10360964;28;20498;-74
2023/08/09 09:47:31;;;;;;;8.10;4.90;;;;;;;;;;10355843;28;20402;-74
2023/08/09 09:52:28;;;;;;;10.30;5.38;;;;;;;;;;10352821;28;20045;-74
2023/08/09 09:57:24;;;;;;;8.95;5.65;;;;;;;;;;10353947;28;20044;-74
2023/08/09 10:02:21;;;;;;;10.30;5.25;;;;;;;;;;10352610;28;20661;-75
2023/08/09 10:07:17;;;;;;;11.18;5.55;;;;;;;;;;10327239;28;20403;-73
2023/08/09 10:12:16;;;;;;;9.00;5.25;;;;;;;;;;10318625;28;20160;-73
2023/08/09 10:17:12;;;;;;;8.48;5.07;;;;;;;;;;10352498;28;20566;-74
2023/08/09 10:22:12;;;;;;;9.57;5.57;;;;;;;;;;10358526;28;20468;-74
2023/08/09 10:27:11;;;;;;;11.10;5.45;;;;;;;;;;10358603;28;20048;-73
2023/08/09 10:32:08;;;;;;;11.25;5.65;;;;;;;;;;10332883;28;20045;-74
2023/08/09 10:37:06;;;;;;;6.88;5.22;;;;;;;;;;10349782;28;20044;-74
2023/08/09 10:42:05;;;;;;;10.55;5.57;;;;;;;;;;10358180;28;20046;-74
2023/08/09 10:47:08;;;;;;;7.28;5.43;;;;;;;;;;10356788;28;20046;-73
2023/08/09 10:52:10;;;;;;;9.30;6.05;;;;;;;;;;10357677;28;20044;-73
2023/08/09 10:57:11;;;;;;;12.38;5.97;;;;;;;;;;10356758;28;20047;-74
2023/08/09 11:02:07;;;;;;;7.57;6.30;;;;;;;;;;10357337;28;20417;-73
2023/08/09 11:07:06;;;;;;;6.05;5.38;;;;;;;;;;10357315;28;20054;-74
2023/08/09 11:12:05;;;;;;;6.95;5.40;;;;;;;;;;10349445;28;20072;-74
2023/08/09 11:17:01;;;;;;;10.25;5.47;;;;;;;;;;10315029;28;20391;-73
2023/08/09 11:21:58;;;;;;;9.32;5.93;;;;;;;;;;10316572;28;20056;-73
2023/08/09 11:26:55;;;;;;;8.75;5.90;;;;;;;;;;10347619;28;20048;-73
2023/08/09 11:31:53;;;;;;;7.65;5.63;;;;;;;;;;10356130;28;20563;-73
2023/08/09 11:36:55;;;;;;;6.25;4.68;;;;;;;;;;10338405;28;20049;-75
2023/08/09 11:41:55;;;;;;;5.55;4.80;;;;;;;;;;10315659;28;20399;-74
2023/08/09 11:46:53;;;;;;;9.52;5.55;;;;;;;;;;10346698;28;20416;-73
2023/08/09 11:51:49;;;;;;;8.13;5.50;;;;;;;;;;10356762;28;20444;-73
2023/08/09 11:56:46;;;;;;;7.93;5.13;;;;;;;;;;10355133;28;20051;-72
2023/08/09 12:01:46;;;;;;;8.25;5.70;;;;;;;;;;10362640;28;20098;-72
2023/08/09 12:06:44;;;;;;;15.68;5.65;;;;;;;;;;10353358;28;20044;-72
2023/08/09 12:11:46;;;;;;;6.20;5.45;;;;;;;;;;10362956;28;20040;-73
2023/08/09 12:16:43;;;;;;;7.38;5.53;;;;;;;;;;10363619;28;20044;-73
2023/08/09 12:21:39;;;;;;;6.72;5.30;;;;;;;;;;10363540;28;20135;-72
2023/08/09 12:26:36;;;;;;;5.95;5.35;;;;;;;;;;10361751;28;20417;-73
2023/08/09 12:31:33;;;;;;;8.13;5.22;;;;;;;;;;10322947;28;20506;-73
2023/08/09 12:36:30;;;;;;;5.53;4.95;;;;;;;;;;10349850;28;20044;-73
2023/08/09 12:41:26;;;;;;;6.32;4.93;;;;;;;;;;10362799;28;20052;-73
2023/08/09 12:46:22;;;;;;;6.72;5.10;;;;;;;;;;10361573;28;20051;-73
2023/08/09 12:51:19;;;;;;;5.55;4.70;;;;;;;;;;10362759;28;20421;-73
2023/08/09 12:56:15;;;;;;;5.57;4.90;;;;;;;;;;10361490;28;20048;-73
2023/08/09 13:01:12;;;;;;;6.97;4.80;;;;;;;;;;10362589;28;20040;-73
2023/08/09 13:06:09;;;;;;;6.43;5.50;;;;;;;;;;10345152;28;20477;-73
2023/08/09 13:11:05;;;;;;;6.18;4.97;;;;;;;;;;10319998;28;20045;-73
2023/08/09 13:16:03;;;;;;;5.35;4.85;;;;;;;;;;10345132;28;20040;-73
2023/08/09 13:21:13;;;;;;;6.05;5.03;;;;;;;;;;10251975;22;20049;-73
2023/08/09 13:26:12;;;;;;;8.93;5.43;;;;;;;;;;10246476;28;20045;-73
2023/08/09 13:31:09;;;;;;;8.00;5.68;;;;;;;;;;10260717;28;20042;-72
2023/08/09 13:36:06;;;;;;;8.25;7.45;;;;;;;;;;10238396;28;20044;-71
2023/08/09 13:41:02;;;;;;;8.88;8.00;;;;;;;;;;10230247;28;20049;-71
2023/08/09 13:45:59;;;;;;;7.43;6.72;;;;;;;;;;10229131;28;20522;-72
2023/08/09 13:50:55;;;;;;;8.63;7.75;;;;;;;;;;10238491;28;20392;-72
2023/08/09 13:55:51;;;;;;;7.75;6.43;;;;;;;;;;10243464;28;20037;-72
2023/08/09 14:00:48;;;;;;;7.18;5.82;;;;;;;;;;10278392;28;20051;-72
2023/08/09 14:05:46;;;;;;;7.60;5.40;;;;;;;;;;10267599;28;20515;-72
2023/08/09 14:10:42;;;;;;;7.75;5.50;;;;;;;;;;10237251;28;20107;-72
2023/08/09 14:15:38;;;;;;;9.60;6.10;;;;;;;;;;10238399;28;20049;-72
2023/08/09 14:25:46;;;;;;;7.60;5.63;;;;;;;;;;9843684;26;20134;-72
2023/08/09 14:31:10;;;;;;;6.25;5.00;;;;;;;;;;10008176;28;20051;-73
2023/08/09 14:36:07;;;;;;;8.68;5.70;;;;;;;;;;10062885;28;20047;-73
2023/08/09 14:41:03;;;;;;;9.65;6.35;;;;;;;;;;10054886;28;20048;-73
2023/08/09 14:46:02;;;;;;;9.77;7.25;;;;;;;;;;10041060;28;20109;-74
2023/08/09 14:50:58;;;;;;;9.50;6.53;;;;;;;;;;10050140;28;20056;-74
2023/08/09 14:55:54;;;;;;;11.40;7.65;;;;;;;;;;10068811;28;20063;-75
2023/08/09 15:00:50;;;;;;;9.57;7.13;;;;;;;;;;10045586;28;20056;-76
2023/08/09 15:05:47;;;;;;;7.75;7.05;;;;;;;;;;10053408;28;20484;-76
2023/08/09 15:10:43;;;;;;;10.40;6.82;;;;;;;;;;9998890;28;20471;-75
2023/08/09 15:15:40;;;;;;;8.65;7.72;;;;;;;;;;10035071;28;20865;-75
2023/08/09 15:20:36;;;;;;;6.20;5.35;;;;;;;;;;9995405;28;20115;-75
2023/08/09 15:25:33;;;;;;;8.27;5.30;;;;;;;;;;10009419;28;20060;-75
2023/08/09 15:30:29;;;;;;;9.77;6.38;;;;;;;;;;9992590;28;20052;-75
2023/08/09 15:35:26;;;;;;;10.63;6.28;;;;;;;;;;10030281;28;20074;-76
2023/08/09 15:40:22;;;;;;;10.77;6.38;;;;;;;;;;10070089;28;20054;-75
2023/08/09 15:45:18;;;;;;;9.50;5.63;;;;;;;;;;10059468;28;20052;-75
2023/08/09 15:50:15;;;;;;;10.40;5.30;;;;;;;;;;10059912;28;20168;-75
2023/08/09 15:55:12;;;;;;;7.15;5.32;;;;;;;;;;10026039;28;20059;-75
2023/08/09 16:00:09;;;;;;;11.75;5.18;;;;;;;;;;10062534;28;20055;-75
2023/08/09 16:05:06;;;;;;;6.43;5.10;;;;;;;;;;10030561;28;20139;-75
2023/08/09 16:10:02;;;;;;;9.43;5.30;;;;;;;;;;10020820;28;20091;-74
2023/08/09 16:14:58;;;;;;;7.30;4.95;;;;;;;;;;10022836;29;20059;-74
2023/08/09 16:19:55;;;;;;;8.20;4.88;;;;;;;;;;10047138;28;20056;-74
2023/08/09 16:24:51;;;;;;;6.65;4.82;;;;;;;;;;10019288;28;20044;-74
2023/08/09 16:29:48;;;;;;;6.55;4.65;;;;;;;;;;10034131;28;20068;-74
2023/08/09 16:34:44;;;;;;;5.55;4.90;;;;;;;;;;10017680;28;20059;-75
2023/08/09 16:39:40;;;;;;;7.18;5.03;;;;;;;;;;10026077;28;20148;-75
2023/08/09 16:44:37;;;;;;;5.53;4.70;;;;;;;;;;10015655;28;20131;-75
2023/08/09 16:49:33;;;;;;;5.65;4.70;;;;;;;;;;9997305;28;20059;-75
2023/08/09 16:54:29;;;;;;;6.93;4.35;;;;;;;;;;9997075;28;20064;-75
2023/08/09 16:59:26;;;;;;;7.43;4.53;;;;;;;;;;9996832;28;20052;-75
2023/08/09 17:04:24;;;;;;;9.65;4.63;;;;;;;;;;10018246;28;20058;-73
2023/08/09 17:09:21;;;;;;;4.88;4.05;;;;;;;;;;10056697;28;20060;-74
2023/08/09 17:14:17;;;;;;;6.68;4.50;;;;;;;;;;10015554;28;20055;-74
2023/08/09 17:19:14;;;;;;;9.50;4.45;;;;;;;;;;10034263;28;20071;-74
2023/08/09 17:24:10;;;;;;;6.00;4.05;;;;;;;;;;10014144;28;20513;-74
2023/08/09 17:29:06;;;;;;;7.30;4.43;;;;;;;;;;10053405;28;20052;-74
2023/08/09 17:34:03;;;;;;;5.15;3.83;;;;;;;;;;10042096;28;20062;-74
2023/08/09 17:38:59;;;;;;;5.53;4.20;;;;;;;;;;10010693;28;20045;-74
2023/08/09 17:43:56;;;;;;;5.40;4.20;;;;;;;;;;10009666;28;20529;-74
2023/08/09 17:48:53;;;;;;;7.25;4.78;;;;;;;;;;10072716;28;20051;-74
2023/08/09 17:53:52;;;;;;;7.03;4.78;;;;;;;;;;10054330;28;20070;-74
2023/08/09 17:58:48;;;;;;;5.60;3.50;;;;;;;;;;10033458;28;20051;-74
2023/08/09 18:03:45;;;;;;;7.82;4.30;;;;;;;;;;10026647;28;20529;-75
2023/08/09 18:08:41;;;;;;;6.82;4.25;;;;;;;;;;10071874;28;20121;-74
2023/08/09 18:13:37;;;;;;;7.57;4.43;;;;;;;;;;10008953;28;20051;-74
2023/08/09 18:18:34;;;;;;;8.90;4.10;;;;;;;;;;10044710;28;20135;-74
2023/08/09 18:23:30;;;;;;;6.18;3.78;;;;;;;;;;9994447;28;20052;-74
2023/08/09 18:28:27;;;;;;;6.55;4.40;;;;;;;;;;10025295;28;20047;-74
2023/08/09 18:33:23;;;;;;;7.32;4.25;;;;;;;;;;10023727;28;20056;-74
2023/08/09 18:38:19;;;;;;;8.25;4.53;;;;;;;;;;10007136;28;20060;-74
2023/08/09 18:43:16;;;;;;;9.02;4.00;;;;;;;;;;9995166;28;20048;-74
2023/08/09 18:48:12;;;;;;;9.75;4.88;;;;;;;;;;9993850;28;20107;-74
2023/08/09 18:53:10;;;;;;;9.25;4.80;;;;;;;;;;9995383;28;20059;-74
2023/08/09 18:58:11;;;;;;;8.30;4.60;;;;;;;;;;10045456;28;20071;-74
2023/08/09 19:03:09;;;;;;;10.43;4.53;;;;;;;;;;9993646;28;20044;-74
2023/08/09 19:08:06;;;;;;;10.45;4.57;;;;;;;;;;9993236;28;20048;-75
2023/08/09 19:13:03;;;;;;;8.27;4.25;;;;;;;;;;9993211;28;20521;-74
2023/08/09 19:17:59;;;;;;;10.65;5.18;;;;;;;;;;10023653;28;20123;-75
2023/08/09 19:22:58;;;;;;;8.60;4.40;;;;;;;;;;9992554;28;20541;-75
2023/08/09 19:27:54;;;;;;;6.72;4.35;;;;;;;;;;10011284;28;20056;-75
2023/08/09 19:32:51;;;;;;;10.25;5.30;;;;;;;;;;9992894;28;20048;-74
2023/08/09 19:37:54;;;;;;;10.95;5.03;;;;;;;;;;10022437;28;20479;-74
2023/08/09 19:42:50;;;;;;;10.88;6.05;;;;;;;;;;9992610;28;20063;-74
2023/08/09 19:47:47;;;;;;;8.77;5.20;;;;;;;;;;9992276;28;20056;-74
2023/08/09 19:52:44;;;;;;;7.63;5.50;;;;;;;;;;9992534;28;20545;-74
2023/08/09 19:57:40;;;;;;;11.40;5.60;;;;;;;;;;10064906;28;20528;-74
2023/08/09 20:02:36;;;;;;;9.98;6.55;;;;;;;;;;10011995;28;20098;-74
2023/08/09 20:07:33;;;;;;;10.02;5.95;;;;;;;;;;10062474;28;20066;-74
2023/08/09 20:12:29;;;;;;;12.38;6.20;;;;;;;;;;10029455;28;20091;-75
2023/08/09 20:17:25;;;;;;;8.52;6.43;;;;;;;;;;10060316;28;20532;-75
2023/08/09 20:22:22;;;;;;;12.38;6.32;;;;;;;;;;10035274;28;20143;-74
2023/08/09 20:27:18;;;;;;;8.35;6.07;;;;;;;;;;10037736;28;20059;-75
2023/08/09 20:32:15;;;;;;;11.80;6.32;;;;;;;;;;10036620;28;20064;-73
2023/08/09 20:37:11;;;;;;;12.63;6.35;;;;;;;;;;10069335;28;20070;-74
2023/08/09 20:42:08;;;;;;;10.73;6.15;;;;;;;;;;10030506;28;20136;-74
2023/08/09 20:47:05;;;;;;;9.18;6.00;;;;;;;;;;10061225;28;20574;-75
2023/08/09 20:52:04;;;;;;;8.20;5.40;;;;;;;;;;10007587;28;20059;-74
2023/08/09 20:57:00;;;;;;;14.20;6.68;;;;;;;;;;10051035;28;20059;-74
2023/08/09 21:01:57;;;;;;;8.77;5.72;;;;;;;;;;9996934;28;20426;-74
2023/08/09 21:06:57;;;;;;;12.95;5.95;;;;;;;;;;10036086;28;20069;-74
2023/08/09 21:11:54;;;;;;;11.38;6.85;;;;;;;;;;10027554;28;20052;-74
2023/08/09 21:16:50;;;;;;;13.43;6.47;;;;;;;;;;10007738;28;20690;-74
2023/08/09 21:21:46;;;;;;;11.05;6.13;;;;;;;;;;9996996;28;20064;-74
2023/08/09 21:26:42;;;;;;;10.77;6.68;;;;;;;;;;9996334;28;20064;-74
2023/08/09 21:31:39;;;;;;;11.23;6.20;;;;;;;;;;9995656;28;20432;-74
2023/08/09 21:36:36;;;;;;;15.25;8.75;;;;;;;;;;10051743;28;20059;-74
2023/08/09 21:41:34;;;;;;;11.60;6.10;;;;;;;;;;10044781;28;20541;-74
2023/08/09 21:46:30;;;;;;;10.80;6.10;;;;;;;;;;10025925;28;20075;-74
2023/08/09 21:51:26;;;;;;;7.90;5.70;;;;;;;;;;10009174;28;20060;-74
2023/08/09 21:56:23;;;;;;;9.40;5.97;;;;;;;;;;10090928;28;20055;-74
2023/08/09 22:01:21;;;;;;;6.72;6.10;;;;;;;;;;10008842;28;20080;-74
2023/08/09 22:06:17;;;;;;;10.00;6.53;;;;;;;;;;9994954;28;20052;-74
2023/08/09 22:11:14;;;;;;;9.10;5.95;;;;;;;;;;10010094;28;20572;-75
2023/08/09 22:16:10;;;;;;;10.73;6.10;;;;;;;;;;10026218;28;20082;-74
2023/08/09 22:21:06;;;;;;;6.57;4.75;;;;;;;;;;10033535;28;20079;-74
2023/08/09 22:26:03;;;;;;;13.75;6.35;;;;;;;;;;10014103;28;20059;-74
2023/08/09 22:30:59;;;;;;;9.05;6.47;;;;;;;;;;9994355;28;20110;-74
2023/08/09 22:35:55;;;;;;;10.38;6.05;;;;;;;;;;9996141;28;20052;-74
2023/08/09 22:40:52;;;;;;;15.23;6.07;;;;;;;;;;9995170;28;20430;-74
2023/08/09 22:45:49;;;;;;;7.93;5.85;;;;;;;;;;10037797;28;20275;-74
2023/08/09 22:50:45;;;;;;;11.20;5.85;;;;;;;;;;10071415;28;20425;-74
2023/08/09 22:55:44;;;;;;;10.38;6.13;;;;;;;;;;9994557;28;20052;-74
2023/08/09 23:00:41;;;;;;;8.85;6.13;;;;;;;;;;9997839;28;20048;-74
2023/08/09 23:05:37;;;;;;;11.35;6.40;;;;;;;;;;10052177;28;20051;-74
2023/08/09 23:10:34;;;;;;;15.32;6.75;;;;;;;;;;10061714;28;20076;-74
2023/08/09 23:15:30;;;;;;;11.98;6.55;;;;;;;;;;9992431;28;20449;-74
2023/08/09 23:20:27;;;;;;;9.65;6.03;;;;;;;;;;9994112;28;20052;-74
2023/08/09 23:25:23;;;;;;;9.50;5.43;;;;;;;;;;10029877;28;20497;-74
2023/08/09 23:30:20;;;;;;;12.32;6.32;;;;;;;;;;10032648;28;20053;-74
2023/08/09 23:35:18;;;;;;;6.55;5.95;;;;;;;;;;10027789;28;20055;-74
2023/08/09 23:40:14;;;;;;;7.55;6.75;;;;;;;;;;9996818;28;20083;-74
2023/08/09 23:45:12;;;;;;;8.30;6.88;;;;;;;;;;9993583;28;20464;-74
2023/08/09 23:50:08;;;;;;;13.02;6.82;;;;;;;;;;9991780;28;20052;-74
2023/08/09 23:55:05;;;;;;;9.02;6.63;;;;;;;;;;9995470;28;20059;-73
